Etusivu
METAR-TAF:

METAR-TAF

Lentoasemat :

Bobo Dioulasso, Burkina Faso

Leveyspiiri: 11-10N, Pituuspiiri: 004-19W, korkeus merenpinnasta: 460 m

METAR: puuttuu

Aika: 05:39 (05:39 UTC)

Sääennuste

Tämä raportti tehtiin 6 tuntia ja 39 minuuttia sitten, kello 23.00 UTC
Ennuste voimassa 27. päivästä klo 00 UTC - 27. päivään klo 24 UTC
Tuuli 8 kn koillisesta
Näkyvyys: 6000 m
Tulossa
27. päivästä klo 05 UTC - 27. päivään klo 07 UTC
Näkyvyys: 2500 m
laajalle levinnyttä pölyä
Ajoittain
27. päivästä klo 06 UTC - 27. päivään klo 10 UTC
Näkyvyys: 1400 m
laajalle levinnyttä pölyä

TAF: DFOO 262300Z 2700/2724 04008KT 6000 NSC BECMG 2705/2707 2500 DU TEMPO 2706/2710 1400 DU

Säähavainnot ja -ennusteet yli 4000 lentoasemalta (METAR- ja TAF-raportit).

Käytössä olevat sääasemat on merkitty karttaan keltaisilla ja punaisilla pisteillä.

Aseta hiiri pisteen päälle nähdäksesi sääaseman nimen.

Klikkaa sitten nähdäksesi säähavainnot ja -ennusteet.

Kartan vaihtaminen: klikkaa mustalla rastilla varustettuja vihreitä pisteitä, niin voit zoomata sisään; viivalla varustettua vihreää pistettä, niin voit zoomata ulos tai vihreitä nuolia, niin pääset viereisille kartoille.


METAR-TAF: